sensor_id;sensor_type;location;lat;lon;timestamp;temperature;humidity
28530;DHT22;15737;49.760;6.632;2023-10-08T00:02:23;12.80;99.90
28530;DHT22;15737;49.760;6.632;2023-10-08T00:04:51;12.90;99.90
28530;DHT22;15737;49.760;6.632;2023-10-08T00:07:26;12.80;99.90
28530;DHT22;15737;49.760;6.632;2023-10-08T00:09:53;12.80;99.90
28530;DHT22;15737;49.760;6.632;2023-10-08T00:12:19;12.70;99.90
28530;DHT22;15737;49.760;6.632;2023-10-08T00:17:16;12.60;99.90
28530;DHT22;15737;49.760;6.632;2023-10-08T00:19:43;12.60;99.90
28530;DHT22;15737;49.760;6.632;2023-10-08T00:22:11;12.60;99.90
28530;DHT22;15737;49.760;6.632;2023-10-08T00:24:40;12.60;99.90
28530;DHT22;15737;49.760;6.632;2023-10-08T00:27:07;12.60;99.90
28530;DHT22;15737;49.760;6.632;2023-10-08T00:32:11;12.50;99.90
28530;DHT22;15737;49.760;6.632;2023-10-08T00:34:39;12.50;99.90
28530;DHT22;15737;49.760;6.632;2023-10-08T00:37:07;12.40;99.90
28530;DHT22;15737;49.760;6.632;2023-10-08T00:39:34;12.50;99.90
28530;DHT22;15737;49.760;6.632;2023-10-08T00:42:03;12.50;99.90
28530;DHT22;15737;49.760;6.632;2023-10-08T00:47:21;12.40;99.90
28530;DHT22;15737;49.760;6.632;2023-10-08T00:49:51;12.30;99.90
28530;DHT22;15737;49.760;6.632;2023-10-08T00:52:28;12.30;99.90
28530;DHT22;15737;49.760;6.632;2023-10-08T00:55:08;12.20;99.90
28530;DHT22;15737;49.760;6.632;2023-10-08T00:57:35;12.10;99.90
28530;DHT22;15737;49.760;6.632;2023-10-08T01:00:05;12.10;99.90
28530;DHT22;15737;49.760;6.632;2023-10-08T01:05:15;12.10;99.90
28530;DHT22;15737;49.760;6.632;2023-10-08T01:07:46;12.10;99.90
28530;DHT22;15737;49.760;6.632;2023-10-08T01:10:16;12.10;99.90
28530;DHT22;15737;49.760;6.632;2023-10-08T01:12:45;12.10;99.90
28530;DHT22;15737;49.760;6.632;2023-10-08T01:15:27;12.10;99.90
28530;DHT22;15737;49.760;6.632;2023-10-08T01:17:56;12.10;99.90
28530;DHT22;15737;49.760;6.632;2023-10-08T01:23:06;12.20;99.90
28530;DHT22;15737;49.760;6.632;2023-10-08T01:25:39;12.20;99.90
28530;DHT22;15737;49.760;6.632;2023-10-08T01:28:06;12.20;99.90
28530;DHT22;15737;49.760;6.632;2023-10-08T01:30:43;12.10;99.90
28530;DHT22;15737;49.760;6.632;2023-10-08T01:33:13;12.00;99.90
28530;DHT22;15737;49.760;6.632;2023-10-08T01:35:41;12.10;99.90
28530;DHT22;15737;49.760;6.632;2023-10-08T01:38:07;12.00;99.90
28530;DHT22;15737;49.760;6.632;2023-10-08T01:40:34;12.00;99.90
28530;DHT22;15737;49.760;6.632;2023-10-08T01:42:59;12.00;99.90
28530;DHT22;15737;49.760;6.632;2023-10-08T01:45:26;12.10;99.90
28530;DHT22;15737;49.760;6.632;2023-10-08T01:47:52;12.10;99.90
28530;DHT22;15737;49.760;6.632;2023-10-08T01:55:26;12.20;99.90
28530;DHT22;15737;49.760;6.632;2023-10-08T01:57:52;12.30;99.90
28530;DHT22;15737;49.760;6.632;2023-10-08T02:00:18;12.40;99.90
28530;DHT22;15737;49.760;6.632;2023-10-08T02:02:47;12.50;99.90
28530;DHT22;15737;49.760;6.632;2023-10-08T02:07:53;12.40;99.90
28530;DHT22;15737;49.760;6.632;2023-10-08T02:10:20;12.30;99.90
28530;DHT22;15737;49.760;6.632;2023-10-08T02:12:47;12.20;99.90
28530;DHT22;15737;49.760;6.632;2023-10-08T02:15:13;12.10;99.90
28530;DHT22;15737;49.760;6.632;2023-10-08T02:17:38;12.10;99.90
28530;DHT22;15737;49.760;6.632;2023-10-08T02:20:04;12.10;99.90
28530;DHT22;15737;49.760;6.632;2023-10-08T02:22:31;12.10;99.90
28530;DHT22;15737;49.760;6.632;2023-10-08T02:24:58;12.10;99.90
28530;DHT22;15737;49.760;6.632;2023-10-08T02:27:27;12.20;99.90
28530;DHT22;15737;49.760;6.632;2023-10-08T02:29:53;12.20;99.90
28530;DHT22;15737;49.760;6.632;2023-10-08T02:32:20;12.10;99.90
28530;DHT22;15737;49.760;6.632;2023-10-08T02:34:48;12.10;99.90
28530;DHT22;15737;49.760;6.632;2023-10-08T02:37:13;12.10;99.90
28530;DHT22;15737;49.760;6.632;2023-10-08T02:39:40;12.00;99.90
28530;DHT22;15737;49.760;6.632;2023-10-08T02:42:06;11.90;99.90
28530;DHT22;15737;49.760;6.632;2023-10-08T02:44:36;12.00;99.90
28530;DHT22;15737;49.760;6.632;2023-10-08T02:47:10;12.10;99.90
28530;DHT22;15737;49.760;6.632;2023-10-08T02:49:49;12.10;99.90
28530;DHT22;15737;49.760;6.632;2023-10-08T02:52:17;12.20;99.90
28530;DHT22;15737;49.760;6.632;2023-10-08T02:54:43;12.10;99.90
28530;DHT22;15737;49.760;6.632;2023-10-08T02:57:08;12.00;99.90
28530;DHT22;15737;49.760;6.632;2023-10-08T02:59:40;12.00;99.90
28530;DHT22;15737;49.760;6.632;2023-10-08T03:07:13;11.80;99.90
28530;DHT22;15737;49.760;6.632;2023-10-08T03:09:47;11.80;99.90
28530;DHT22;15737;49.760;6.632;2023-10-08T03:12:15;11.80;99.90
28530;DHT22;15737;49.760;6.632;2023-10-08T03:14:40;11.70;99.90
28530;DHT22;15737;49.760;6.632;2023-10-08T03:17:29;11.70;99.90
28530;DHT22;15737;49.760;6.632;2023-10-08T03:19:58;11.70;99.90
28530;DHT22;15737;49.760;6.632;2023-10-08T03:25:06;11.60;99.90
28530;DHT22;15737;49.760;6.632;2023-10-08T03:27:41;11.70;99.90
28530;DHT22;15737;49.760;6.632;2023-10-08T03:30:07;11.70;99.90
28530;DHT22;15737;49.760;6.632;2023-10-08T03:32:40;11.70;99.90
28530;DHT22;15737;49.760;6.632;2023-10-08T03:37:38;11.60;99.90
28530;DHT22;15737;49.760;6.632;2023-10-08T03:40:11;11.50;99.90
28530;DHT22;15737;49.760;6.632;2023-10-08T03:43:08;11.40;99.90
28530;DHT22;15737;49.760;6.632;2023-10-08T03:45:45;11.40;99.90
28530;DHT22;15737;49.760;6.632;2023-10-08T03:48:13;11.40;99.90
28530;DHT22;15737;49.760;6.632;2023-10-08T03:50:40;11.40;99.90
28530;DHT22;15737;49.760;6.632;2023-10-08T03:53:08;11.40;99.90
28530;DHT22;15737;49.760;6.632;2023-10-08T03:55:37;11.30;99.90
28530;DHT22;15737;49.760;6.632;2023-10-08T03:58:06;11.30;99.90
28530;DHT22;15737;49.760;6.632;2023-10-08T04:00:35;11.30;99.90
28530;DHT22;15737;49.760;6.632;2023-10-08T04:03:07;11.30;99.90
28530;DHT22;15737;49.760;6.632;2023-10-08T04:05:37;11.30;99.90
28530;DHT22;15737;49.760;6.632;2023-10-08T04:08:35;11.30;99.90
28530;DHT22;15737;49.760;6.632;2023-10-08T04:11:20;11.30;99.90
28530;DHT22;15737;49.760;6.632;2023-10-08T04:14:04;11.20;99.90
28530;DHT22;15737;49.760;6.632;2023-10-08T04:16:32;11.20;99.90
28530;DHT22;15737;49.760;6.632;2023-10-08T04:19:02;11.20;99.90
28530;DHT22;15737;49.760;6.632;2023-10-08T04:21:29;11.20;99.90
28530;DHT22;15737;49.760;6.632;2023-10-08T04:23:55;11.30;99.90
28530;DHT22;15737;49.760;6.632;2023-10-08T04:26:23;11.30;99.90
28530;DHT22;15737;49.760;6.632;2023-10-08T04:31:25;11.10;99.90
28530;DHT22;15737;49.760;6.632;2023-10-08T04:33:54;11.10;99.90
28530;DHT22;15737;49.760;6.632;2023-10-08T04:36:26;11.10;99.90
28530;DHT22;15737;49.760;6.632;2023-10-08T04:38:51;11.10;99.90
28530;DHT22;15737;49.760;6.632;2023-10-08T04:41:20;11.10;99.90
28530;DHT22;15737;49.760;6.632;2023-10-08T04:46:23;10.90;99.90
28530;DHT22;15737;49.760;6.632;2023-10-08T04:49:07;10.90;99.90
28530;DHT22;15737;49.760;6.632;2023-10-08T04:51:43;10.90;99.90
28530;DHT22;15737;49.760;6.632;2023-10-08T04:54:14;10.90;99.90
28530;DHT22;15737;49.760;6.632;2023-10-08T04:56:42;11.10;99.90
28530;DHT22;15737;49.760;6.632;2023-10-08T04:59:09;11.20;99.90
28530;DHT22;15737;49.760;6.632;2023-10-08T05:01:49;11.20;99.90
28530;DHT22;15737;49.760;6.632;2023-10-08T05:07:16;11.10;99.90
28530;DHT22;15737;49.760;6.632;2023-10-08T05:10:00;11.10;99.90
28530;DHT22;15737;49.760;6.632;2023-10-08T05:12:28;11.10;99.90
28530;DHT22;15737;49.760;6.632;2023-10-08T05:15:00;11.20;99.90
28530;DHT22;15737;49.760;6.632;2023-10-08T05:17:55;11.20;99.90
28530;DHT22;15737;49.760;6.632;2023-10-08T05:20:34;11.10;99.90
28530;DHT22;15737;49.760;6.632;2023-10-08T05:23:11;11.00;99.90
28530;DHT22;15737;49.760;6.632;2023-10-08T05:25:50;10.90;99.90
28530;DHT22;15737;49.760;6.632;2023-10-08T05:33:40;10.90;99.90
28530;DHT22;15737;49.760;6.632;2023-10-08T05:36:12;10.80;99.90
28530;DHT22;15737;49.760;6.632;2023-10-08T05:38:44;10.90;99.90
28530;DHT22;15737;49.760;6.632;2023-10-08T05:41:27;10.90;99.90
28530;DHT22;15737;49.760;6.632;2023-10-08T05:44:16;10.90;99.90
28530;DHT22;15737;49.760;6.632;2023-10-08T05:46:45;11.00;99.90
28530;DHT22;15737;49.760;6.632;2023-10-08T05:52:07;10.90;99.90
28530;DHT22;15737;49.760;6.632;2023-10-08T05:54:54;10.90;99.90
28530;DHT22;15737;49.760;6.632;2023-10-08T05:57:38;10.90;99.90
28530;DHT22;15737;49.760;6.632;2023-10-08T06:00:04;10.90;99.90
28530;DHT22;15737;49.760;6.632;2023-10-08T06:02:32;11.10;99.90
28530;DHT22;15737;49.760;6.632;2023-10-08T06:10:03;11.40;99.90
28530;DHT22;15737;49.760;6.632;2023-10-08T06:12:39;11.40;99.90
28530;DHT22;15737;49.760;6.632;2023-10-08T06:15:15;11.50;99.90
28530;DHT22;15737;49.760;6.632;2023-10-08T06:17:50;11.70;99.90
28530;DHT22;15737;49.760;6.632;2023-10-08T06:20:23;11.90;99.90
28530;DHT22;15737;49.760;6.632;2023-10-08T06:22:51;12.10;99.90
28530;DHT22;15737;49.760;6.632;2023-10-08T06:25:19;12.00;99.90
28530;DHT22;15737;49.760;6.632;2023-10-08T06:27:49;12.00;99.90
28530;DHT22;15737;49.760;6.632;2023-10-08T06:30:19;12.00;99.90
28530;DHT22;15737;49.760;6.632;2023-10-08T06:32:44;12.00;99.90
28530;DHT22;15737;49.760;6.632;2023-10-08T06:35:11;12.10;99.90
28530;DHT22;15737;49.760;6.632;2023-10-08T06:37:43;12.20;99.90
28530;DHT22;15737;49.760;6.632;2023-10-08T06:40:11;12.40;99.90
28530;DHT22;15737;49.760;6.632;2023-10-08T06:43:03;13.10;99.90
28530;DHT22;15737;49.760;6.632;2023-10-08T06:45:48;14.30;99.90
28530;DHT22;15737;49.760;6.632;2023-10-08T06:48:18;14.80;99.90
28530;DHT22;15737;49.760;6.632;2023-10-08T06:50:46;15.00;99.90
28530;DHT22;15737;49.760;6.632;2023-10-08T06:53:13;15.40;99.90
28530;DHT22;15737;49.760;6.632;2023-10-08T06:55:44;16.10;99.90
28530;DHT22;15737;49.760;6.632;2023-10-08T06:58:16;17.30;99.90
28530;DHT22;15737;49.760;6.632;2023-10-08T07:00:42;19.80;99.90
28530;DHT22;15737;49.760;6.632;2023-10-08T07:03:15;21.60;99.90
28530;DHT22;15737;49.760;6.632;2023-10-08T07:05:46;22.20;99.90
28530;DHT22;15737;49.760;6.632;2023-10-08T07:08:22;21.80;99.90
28530;DHT22;15737;49.760;6.632;2023-10-08T07:10:53;21.00;99.90
28530;DHT22;15737;49.760;6.632;2023-10-08T07:15:49;21.40;99.90
28530;DHT22;15737;49.760;6.632;2023-10-08T07:18:15;22.00;99.90
28530;DHT22;15737;49.760;6.632;2023-10-08T07:20:47;22.00;99.90
28530;DHT22;15737;49.760;6.632;2023-10-08T07:23:22;22.10;99.90
28530;DHT22;15737;49.760;6.632;2023-10-08T07:25:57;23.30;99.90
28530;DHT22;15737;49.760;6.632;2023-10-08T07:28:42;23.80;99.90
28530;DHT22;15737;49.760;6.632;2023-10-08T07:33:44;23.70;99.90
28530;DHT22;15737;49.760;6.632;2023-10-08T07:36:12;24.80;99.90
28530;DHT22;15737;49.760;6.632;2023-10-08T07:38:40;26.60;99.90
28530;DHT22;15737;49.760;6.632;2023-10-08T07:41:08;27.60;99.90
28530;DHT22;15737;49.760;6.632;2023-10-08T07:43:34;27.10;99.90
28530;DHT22;15737;49.760;6.632;2023-10-08T07:46:03;27.50;99.90
28530;DHT22;15737;49.760;6.632;2023-10-08T07:48:29;28.10;99.90
28530;DHT22;15737;49.760;6.632;2023-10-08T07:50:57;27.90;99.90
28530;DHT22;15737;49.760;6.632;2023-10-08T07:53:24;28.10;99.90
28530;DHT22;15737;49.760;6.632;2023-10-08T07:55:50;29.20;99.90
28530;DHT22;15737;49.760;6.632;2023-10-08T07:58:17;29.90;99.90
28530;DHT22;15737;49.760;6.632;2023-10-08T08:00:43;29.40;99.90
28530;DHT22;15737;49.760;6.632;2023-10-08T08:03:37;29.10;99.90
28530;DHT22;15737;49.760;6.632;2023-10-08T08:06:04;29.00;99.20
28530;DHT22;15737;49.760;6.632;2023-10-08T08:08:32;28.90;99.20
28530;DHT22;15737;49.760;6.632;2023-10-08T08:10:59;29.30;98.70
28530;DHT22;15737;49.760;6.632;2023-10-08T08:13:29;30.10;97.70
28530;DHT22;15737;49.760;6.632;2023-10-08T08:21:03;31.90;92.90
28530;DHT22;15737;49.760;6.632;2023-10-08T08:23:30;31.40;92.90
28530;DHT22;15737;49.760;6.632;2023-10-08T08:25:57;30.90;91.90
28530;DHT22;15737;49.760;6.632;2023-10-08T08:28:37;30.20;92.30
28530;DHT22;15737;49.760;6.632;2023-10-08T08:33:33;29.30;91.60
28530;DHT22;15737;49.760;6.632;2023-10-08T08:36:20;29.60;91.10
28530;DHT22;15737;49.760;6.632;2023-10-08T08:38:46;29.20;90.20
28530;DHT22;15737;49.760;6.632;2023-10-08T08:41:13;28.90;90.60
28530;DHT22;15737;49.760;6.632;2023-10-08T08:43:53;28.70;90.50
28530;DHT22;15737;49.760;6.632;2023-10-08T08:46:30;29.10;90.10
28530;DHT22;15737;49.760;6.632;2023-10-08T08:51:29;29.30;87.80
28530;DHT22;15737;49.760;6.632;2023-10-08T08:53:55;29.40;88.10
28530;DHT22;15737;49.760;6.632;2023-10-08T08:56:21;30.40;84.60
28530;DHT22;15737;49.760;6.632;2023-10-08T08:58:49;30.60;84.00
28530;DHT22;15737;49.760;6.632;2023-10-08T09:01:15;31.00;82.30
28530;DHT22;15737;49.760;6.632;2023-10-08T09:06:24;33.20;77.60
28530;DHT22;15737;49.760;6.632;2023-10-08T09:08:50;33.20;74.20
28530;DHT22;15737;49.760;6.632;2023-10-08T09:11:21;31.60;76.00
28530;DHT22;15737;49.760;6.632;2023-10-08T09:13:47;30.40;78.70
28530;DHT22;15737;49.760;6.632;2023-10-08T09:16:14;30.20;79.30
28530;DHT22;15737;49.760;6.632;2023-10-08T09:23:52;29.00;80.30
28530;DHT22;15737;49.760;6.632;2023-10-08T09:26:23;29.40;79.80
28530;DHT22;15737;49.760;6.632;2023-10-08T09:28:49;29.80;78.50
28530;DHT22;15737;49.760;6.632;2023-10-08T09:31:17;30.20;77.50
28530;DHT22;15737;49.760;6.632;2023-10-08T09:36:22;30.40;76.60
28530;DHT22;15737;49.760;6.632;2023-10-08T09:39:01;30.10;75.20
28530;DHT22;15737;49.760;6.632;2023-10-08T09:41:30;29.20;76.60
28530;DHT22;15737;49.760;6.632;2023-10-08T09:43:58;29.30;77.20
28530;DHT22;15737;49.760;6.632;2023-10-08T09:46:30;29.30;76.60
28530;DHT22;15737;49.760;6.632;2023-10-08T09:48:59;28.90;77.40
28530;DHT22;15737;49.760;6.632;2023-10-08T09:51:29;28.40;78.60
28530;DHT22;15737;49.760;6.632;2023-10-08T09:54:07;28.00;79.20
28530;DHT22;15737;49.760;6.632;2023-10-08T09:56:36;27.70;80.10
28530;DHT22;15737;49.760;6.632;2023-10-08T09:59:02;27.60;79.80
28530;DHT22;15737;49.760;6.632;2023-10-08T10:01:28;27.20;80.60
28530;DHT22;15737;49.760;6.632;2023-10-08T10:03:57;27.00;81.30
28530;DHT22;15737;49.760;6.632;2023-10-08T10:06:26;26.90;82.00
28530;DHT22;15737;49.760;6.632;2023-10-08T10:09:20;26.70;82.40
28530;DHT22;15737;49.760;6.632;2023-10-08T10:11:51;26.90;82.70
28530;DHT22;15737;49.760;6.632;2023-10-08T10:14:18;27.00;82.40
28530;DHT22;15737;49.760;6.632;2023-10-08T10:17:25;26.90;81.90
28530;DHT22;15737;49.760;6.632;2023-10-08T10:20:01;26.70;82.60
28530;DHT22;15737;49.760;6.632;2023-10-08T10:22:34;26.80;82.60
28530;DHT22;15737;49.760;6.632;2023-10-08T10:25:02;26.90;81.80
28530;DHT22;15737;49.760;6.632;2023-10-08T10:30:10;27.50;80.40
28530;DHT22;15737;49.760;6.632;2023-10-08T10:32:37;27.40;80.30
28530;DHT22;15737;49.760;6.632;2023-10-08T10:35:04;27.60;79.90
28530;DHT22;15737;49.760;6.632;2023-10-08T10:37:37;27.80;80.10
28530;DHT22;15737;49.760;6.632;2023-10-08T10:40:20;27.60;78.90
28530;DHT22;15737;49.760;6.632;2023-10-08T10:42:56;27.30;80.00
28530;DHT22;15737;49.760;6.632;2023-10-08T10:48:03;27.10;79.70
28530;DHT22;15737;49.760;6.632;2023-10-08T10:53:40;27.00;78.30
28530;DHT22;15737;49.760;6.632;2023-10-08T10:56:25;27.10;78.40
28530;DHT22;15737;49.760;6.632;2023-10-08T10:59:00;27.40;77.40
28530;DHT22;15737;49.760;6.632;2023-10-08T11:01:27;27.60;78.10
28530;DHT22;15737;49.760;6.632;2023-10-08T11:03:56;28.20;77.90
28530;DHT22;15737;49.760;6.632;2023-10-08T11:06:23;29.10;75.60
28530;DHT22;15737;49.760;6.632;2023-10-08T11:08:51;29.60;74.30
28530;DHT22;15737;49.760;6.632;2023-10-08T11:11:18;29.50;73.20
28530;DHT22;15737;49.760;6.632;2023-10-08T11:13:44;28.80;75.30
28530;DHT22;15737;49.760;6.632;2023-10-08T11:16:16;29.30;75.00
28530;DHT22;15737;49.760;6.632;2023-10-08T11:18:45;30.10;73.70
28530;DHT22;15737;49.760;6.632;2023-10-08T11:21:31;29.90;71.70
28530;DHT22;15737;49.760;6.632;2023-10-08T11:23:59;30.10;73.10
28530;DHT22;15737;49.760;6.632;2023-10-08T11:26:26;30.20;72.50
28530;DHT22;15737;49.760;6.632;2023-10-08T11:29:09;30.70;73.00
28530;DHT22;15737;49.760;6.632;2023-10-08T11:31:40;31.30;70.30
28530;DHT22;15737;49.760;6.632;2023-10-08T11:34:07;31.30;70.40
28530;DHT22;15737;49.760;6.632;2023-10-08T11:36:38;31.60;69.80
28530;DHT22;15737;49.760;6.632;2023-10-08T11:41:56;29.00;73.50
28530;DHT22;15737;49.760;6.632;2023-10-08T11:44:22;28.70;76.20
28530;DHT22;15737;49.760;6.632;2023-10-08T11:46:49;29.50;75.20
28530;DHT22;15737;49.760;6.632;2023-10-08T11:49:18;30.10;75.00
28530;DHT22;15737;49.760;6.632;2023-10-08T11:51:45;30.80;74.10
28530;DHT22;15737;49.760;6.632;2023-10-08T11:56:45;29.70;75.10
28530;DHT22;15737;49.760;6.632;2023-10-08T11:59:11;30.50;73.70
28530;DHT22;15737;49.760;6.632;2023-10-08T12:01:38;31.40;72.30
28530;DHT22;15737;49.760;6.632;2023-10-08T12:04:10;32.40;69.20
28530;DHT22;15737;49.760;6.632;2023-10-08T12:06:42;32.60;68.80
28530;DHT22;15737;49.760;6.632;2023-10-08T12:11:44;33.60;66.10
28530;DHT22;15737;49.760;6.632;2023-10-08T12:14:09;34.00;64.60
28530;DHT22;15737;49.760;6.632;2023-10-08T12:16:36;33.40;65.40
28530;DHT22;15737;49.760;6.632;2023-10-08T12:19:02;33.10;66.20
28530;DHT22;15737;49.760;6.632;2023-10-08T12:21:40;33.20;65.50
28530;DHT22;15737;49.760;6.632;2023-10-08T12:26:42;33.30;65.70
28530;DHT22;15737;49.760;6.632;2023-10-08T12:29:12;32.70;66.60
28530;DHT22;15737;49.760;6.632;2023-10-08T12:31:39;32.30;68.00
28530;DHT22;15737;49.760;6.632;2023-10-08T12:34:05;32.20;67.90
28530;DHT22;15737;49.760;6.632;2023-10-08T12:36:30;32.60;64.60
28530;DHT22;15737;49.760;6.632;2023-10-08T12:44:06;31.50;66.00
28530;DHT22;15737;49.760;6.632;2023-10-08T12:46:33;31.60;65.60
28530;DHT22;15737;49.760;6.632;2023-10-08T12:48:59;32.00;64.50
28530;DHT22;15737;49.760;6.632;2023-10-08T12:51:27;32.40;63.10
28530;DHT22;15737;49.760;6.632;2023-10-08T12:59:03;33.40;60.20
28530;DHT22;15737;49.760;6.632;2023-10-08T13:01:34;32.90;61.70
28530;DHT22;15737;49.760;6.632;2023-10-08T13:04:01;32.60;61.40
28530;DHT22;15737;49.760;6.632;2023-10-08T13:06:33;32.20;62.60
28530;DHT22;15737;49.760;6.632;2023-10-08T13:11:31;31.80;62.30
28530;DHT22;15737;49.760;6.632;2023-10-08T13:13:59;31.10;63.00
28530;DHT22;15737;49.760;6.632;2023-10-08T13:16:26;31.00;64.40
28530;DHT22;15737;49.760;6.632;2023-10-08T13:18:52;30.60;64.60
28530;DHT22;15737;49.760;6.632;2023-10-08T13:21:18;30.40;65.70
28530;DHT22;15737;49.760;6.632;2023-10-08T13:26:29;29.60;67.30
28530;DHT22;15737;49.760;6.632;2023-10-08T13:29:00;29.30;67.80
28530;DHT22;15737;49.760;6.632;2023-10-08T13:31:26;29.60;68.30
28530;DHT22;15737;49.760;6.632;2023-10-08T13:33:52;29.80;67.90
28530;DHT22;15737;49.760;6.632;2023-10-08T13:36:21;30.20;67.60
28530;DHT22;15737;49.760;6.632;2023-10-08T13:43:53;30.00;68.10
28530;DHT22;15737;49.760;6.632;2023-10-08T13:46:24;30.00;68.70
28530;DHT22;15737;49.760;6.632;2023-10-08T13:48:50;30.30;68.30
28530;DHT22;15737;49.760;6.632;2023-10-08T13:51:21;30.00;69.00
28530;DHT22;15737;49.760;6.632;2023-10-08T13:56:23;29.10;71.20
28530;DHT22;15737;49.760;6.632;2023-10-08T13:58:55;28.90;72.60
28530;DHT22;15737;49.760;6.632;2023-10-08T14:01:41;28.90;72.50
28530;DHT22;15737;49.760;6.632;2023-10-08T14:04:08;29.30;72.00
28530;DHT22;15737;49.760;6.632;2023-10-08T14:06:38;29.60;72.20
28530;DHT22;15737;49.760;6.632;2023-10-08T14:09:06;29.90;71.50
28530;DHT22;15737;49.760;6.632;2023-10-08T14:11:34;30.20;71.40
28530;DHT22;15737;49.760;6.632;2023-10-08T14:14:00;29.80;70.80
28530;DHT22;15737;49.760;6.632;2023-10-08T14:16:35;29.10;72.50
28530;DHT22;15737;49.760;6.632;2023-10-08T14:19:01;28.60;73.90
28530;DHT22;15737;49.760;6.632;2023-10-08T14:21:30;28.60;74.40
28530;DHT22;15737;49.760;6.632;2023-10-08T14:23:56;28.30;75.20
28530;DHT22;15737;49.760;6.632;2023-10-08T14:26:28;27.90;76.60
28530;DHT22;15737;49.760;6.632;2023-10-08T14:29:04;27.50;77.70
28530;DHT22;15737;49.760;6.632;2023-10-08T14:31:36;27.30;78.10
28530;DHT22;15737;49.760;6.632;2023-10-08T14:34:05;27.40;78.70
28530;DHT22;15737;49.760;6.632;2023-10-08T14:36:34;27.80;77.90
28530;DHT22;15737;49.760;6.632;2023-10-08T14:39:18;27.90;77.50
28530;DHT22;15737;49.760;6.632;2023-10-08T14:42:03;27.60;77.30
28530;DHT22;15737;49.760;6.632;2023-10-08T14:47:17;26.50;80.60
28530;DHT22;15737;49.760;6.632;2023-10-08T14:49:43;26.00;82.40
28530;DHT22;15737;49.760;6.632;2023-10-08T14:52:09;25.40;84.00
28530;DHT22;15737;49.760;6.632;2023-10-08T14:54:34;25.40;85.00
28530;DHT22;15737;49.760;6.632;2023-10-08T14:59:31;25.60;84.70
28530;DHT22;15737;49.760;6.632;2023-10-08T15:02:08;25.50;85.30
28530;DHT22;15737;49.760;6.632;2023-10-08T15:04:36;25.40;85.70
28530;DHT22;15737;49.760;6.632;2023-10-08T15:07:05;25.10;87.10
28530;DHT22;15737;49.760;6.632;2023-10-08T15:09:34;24.90;87.40
28530;DHT22;15737;49.760;6.632;2023-10-08T15:11:59;24.70;88.00
28530;DHT22;15737;49.760;6.632;2023-10-08T15:19:37;24.90;88.80
28530;DHT22;15737;49.760;6.632;2023-10-08T15:22:04;25.20;88.50
28530;DHT22;15737;49.760;6.632;2023-10-08T15:24:30;25.20;88.30
28530;DHT22;15737;49.760;6.632;2023-10-08T15:32:04;25.60;88.60
28530;DHT22;15737;49.760;6.632;2023-10-08T15:34:30;25.60;88.10
28530;DHT22;15737;49.760;6.632;2023-10-08T15:36:56;25.60;88.60
28530;DHT22;15737;49.760;6.632;2023-10-08T15:39:22;25.50;88.60
28530;DHT22;15737;49.760;6.632;2023-10-08T15:41:52;25.40;89.50
28530;DHT22;15737;49.760;6.632;2023-10-08T15:49:27;24.70;91.50
28530;DHT22;15737;49.760;6.632;2023-10-08T15:51:52;24.50;92.30
28530;DHT22;15737;49.760;6.632;2023-10-08T15:54:18;24.10;92.80
28530;DHT22;15737;49.760;6.632;2023-10-08T15:56:46;23.80;93.90
28530;DHT22;15737;49.760;6.632;2023-10-08T15:59:15;23.30;94.30
28530;DHT22;15737;49.760;6.632;2023-10-08T16:01:40;22.90;95.40
28530;DHT22;15737;49.760;6.632;2023-10-08T16:04:08;22.60;96.10
28530;DHT22;15737;49.760;6.632;2023-10-08T16:06:35;22.30;96.50
28530;DHT22;15737;49.760;6.632;2023-10-08T16:09:00;22.10;97.10
28530;DHT22;15737;49.760;6.632;2023-10-08T16:13:55;21.60;99.20
28530;DHT22;15737;49.760;6.632;2023-10-08T16:16:22;21.20;99.70
28530;DHT22;15737;49.760;6.632;2023-10-08T16:18:47;20.90;99.90
28530;DHT22;15737;49.760;6.632;2023-10-08T16:21:13;20.60;99.90
28530;DHT22;15737;49.760;6.632;2023-10-08T16:23:39;20.40;99.90
28530;DHT22;15737;49.760;6.632;2023-10-08T16:31:19;19.80;99.90
28530;DHT22;15737;49.760;6.632;2023-10-08T16:33:46;19.60;99.90
28530;DHT22;15737;49.760;6.632;2023-10-08T16:36:12;19.40;99.90
28530;DHT22;15737;49.760;6.632;2023-10-08T16:38:39;19.30;99.90
28530;DHT22;15737;49.760;6.632;2023-10-08T16:41:11;19.20;99.90
28530;DHT22;15737;49.760;6.632;2023-10-08T16:43:46;19.10;99.90
28530;DHT22;15737;49.760;6.632;2023-10-08T16:46:11;18.90;99.90
28530;DHT22;15737;49.760;6.632;2023-10-08T16:48:37;18.80;99.90
28530;DHT22;15737;49.760;6.632;2023-10-08T16:51:03;18.70;99.90
28530;DHT22;15737;49.760;6.632;2023-10-08T16:53:29;18.50;99.90
28530;DHT22;15737;49.760;6.632;2023-10-08T16:55:55;18.30;99.90
28530;DHT22;15737;49.760;6.632;2023-10-08T16:58:20;18.20;99.90
28530;DHT22;15737;49.760;6.632;2023-10-08T17:00:46;18.10;99.90
28530;DHT22;15737;49.760;6.632;2023-10-08T17:03:13;17.90;99.90
28530;DHT22;15737;49.760;6.632;2023-10-08T17:05:38;17.80;99.90
28530;DHT22;15737;49.760;6.632;2023-10-08T17:10:41;17.60;99.90
28530;DHT22;15737;49.760;6.632;2023-10-08T17:13:06;17.50;99.90
28530;DHT22;15737;49.760;6.632;2023-10-08T17:15:36;17.40;99.90
28530;DHT22;15737;49.760;6.632;2023-10-08T17:18:02;17.30;99.90
28530;DHT22;15737;49.760;6.632;2023-10-08T17:20:27;17.30;99.90
28530;DHT22;15737;49.760;6.632;2023-10-08T17:22:56;17.20;99.90
28530;DHT22;15737;49.760;6.632;2023-10-08T17:25:22;17.10;99.90
28530;DHT22;15737;49.760;6.632;2023-10-08T17:27:47;17.10;99.90
28530;DHT22;15737;49.760;6.632;2023-10-08T17:30:14;17.10;99.90
28530;DHT22;15737;49.760;6.632;2023-10-08T17:32:47;17.10;99.90
28530;DHT22;15737;49.760;6.632;2023-10-08T17:35:14;17.10;99.90
28530;DHT22;15737;49.760;6.632;2023-10-08T17:37:42;17.00;99.90
28530;DHT22;15737;49.760;6.632;2023-10-08T17:40:12;17.00;99.90
28530;DHT22;15737;49.760;6.632;2023-10-08T17:42:38;16.90;99.90
28530;DHT22;15737;49.760;6.632;2023-10-08T17:45:05;16.80;99.90
28530;DHT22;15737;49.760;6.632;2023-10-08T17:47:42;16.70;99.90
28530;DHT22;15737;49.760;6.632;2023-10-08T17:52:36;16.60;99.90
28530;DHT22;15737;49.760;6.632;2023-10-08T17:55:02;16.60;99.90
28530;DHT22;15737;49.760;6.632;2023-10-08T17:57:31;16.60;99.90
28530;DHT22;15737;49.760;6.632;2023-10-08T17:59:57;16.60;99.90
28530;DHT22;15737;49.760;6.632;2023-10-08T18:02:23;16.50;99.90
28530;DHT22;15737;49.760;6.632;2023-10-08T18:04:48;16.40;99.90
28530;DHT22;15737;49.760;6.632;2023-10-08T18:09:57;16.20;99.90
28530;DHT22;15737;49.760;6.632;2023-10-08T18:12:22;16.10;99.90
28530;DHT22;15737;49.760;6.632;2023-10-08T18:14:48;16.10;99.90
28530;DHT22;15737;49.760;6.632;2023-10-08T18:17:16;16.10;99.90
28530;DHT22;15737;49.760;6.632;2023-10-08T18:19:42;16.10;99.90
28530;DHT22;15737;49.760;6.632;2023-10-08T18:24:55;16.10;99.90
28530;DHT22;15737;49.760;6.632;2023-10-08T18:27:21;16.00;99.90